Terminal Aerodrome Forecast
Issued by NWS San Angelo, TX

Home | Current Version | Previous Version | Text Only | Print | Product List | Glossary On
Versions: 1 2 3 4 5 6 7 8 9 10 11 12 13 14 15 16 17 18 19 20
000
FTUS44 KSJT 271721
TAFABI
TAF
KABI 271721Z 2718/2818 VRB06KT P6SM SCT080 BKN120
     FM272100 01007KT P6SM SCT120
     FM280000 VRB06KT P6SM SCT120=

USA.gov is the U.S. government's official web portal to all federal, state and local government web resources and services.